sensor_id;sensor_type;location;lat;lon;timestamp;pressure;altitude;pressure_sealevel;temperature;humidity
61026;BME280;46911;32.650;-16.902;2023-12-07T00:00:37;101873.44;;;17.54;72.65
61026;BME280;46911;32.650;-16.902;2023-12-07T00:02:38;101881.78;;;17.63;72.58
61026;BME280;46911;32.650;-16.902;2023-12-07T00:04:39;101882.75;;;17.62;72.92
61026;BME280;46911;32.650;-16.902;2023-12-07T00:06:43;101882.00;;;17.60;72.83
61026;BME280;46911;32.650;-16.902;2023-12-07T00:08:44;101873.81;;;17.61;72.63
61026;BME280;46911;32.650;-16.902;2023-12-07T00:10:47;101863.75;;;17.52;72.39
61026;BME280;46911;32.650;-16.902;2023-12-07T00:12:48;101858.81;;;17.46;72.48
61026;BME280;46911;32.650;-16.902;2023-12-07T00:14:49;101869.25;;;17.50;72.62
61026;BME280;46911;32.650;-16.902;2023-12-07T00:16:50;101870.84;;;17.53;72.62
61026;BME280;46911;32.650;-16.902;2023-12-07T00:18:51;101870.59;;;17.45;72.68
61026;BME280;46911;32.650;-16.902;2023-12-07T00:20:52;101864.59;;;17.41;73.19
61026;BME280;46911;32.650;-16.902;2023-12-07T00:22:57;101864.81;;;17.38;73.19
61026;BME280;46911;32.650;-16.902;2023-12-07T00:25:00;101857.09;;;17.33;73.19
61026;BME280;46911;32.650;-16.902;2023-12-07T00:27:04;101858.84;;;17.34;73.59
61026;BME280;46911;32.650;-16.902;2023-12-07T00:29:06;101865.19;;;17.33;73.60
61026;BME280;46911;32.650;-16.902;2023-12-07T00:31:12;101855.50;;;17.31;73.48
61026;BME280;46911;32.650;-16.902;2023-12-07T00:33:18;101849.63;;;17.26;73.51
61026;BME280;46911;32.650;-16.902;2023-12-07T00:35:18;101853.16;;;17.26;73.73
61026;BME280;46911;32.650;-16.902;2023-12-07T00:37:22;101843.47;;;17.23;73.99
61026;BME280;46911;32.650;-16.902;2023-12-07T00:39:25;101851.47;;;17.25;73.54
61026;BME280;46911;32.650;-16.902;2023-12-07T00:41:26;101847.88;;;17.24;74.02
61026;BME280;46911;32.650;-16.902;2023-12-07T00:43:27;101836.59;;;17.19;73.97
61026;BME280;46911;32.650;-16.902;2023-12-07T00:45:31;101843.25;;;17.27;74.27
61026;BME280;46911;32.650;-16.902;2023-12-07T00:47:32;101847.53;;;17.29;73.49
61026;BME280;46911;32.650;-16.902;2023-12-07T00:49:33;101843.84;;;17.30;73.57
61026;BME280;46911;32.650;-16.902;2023-12-07T00:51:34;101830.25;;;17.32;73.28
61026;BME280;46911;32.650;-16.902;2023-12-07T00:53:37;101840.94;;;17.33;73.38
61026;BME280;46911;32.650;-16.902;2023-12-07T00:55:38;101827.91;;;17.27;73.52
61026;BME280;46911;32.650;-16.902;2023-12-07T00:57:40;101827.06;;;17.27;73.49
61026;BME280;46911;32.650;-16.902;2023-12-07T00:59:41;101844.97;;;17.39;73.44
61026;BME280;46911;32.650;-16.902;2023-12-07T01:01:42;101843.13;;;17.39;73.52
61026;BME280;46911;32.650;-16.902;2023-12-07T01:03:48;101835.16;;;17.38;73.26
61026;BME280;46911;32.650;-16.902;2023-12-07T01:05:51;101839.19;;;17.44;72.92
61026;BME280;46911;32.650;-16.902;2023-12-07T01:07:52;101827.94;;;17.50;72.86
61026;BME280;46911;32.650;-16.902;2023-12-07T01:09:53;101828.31;;;17.45;73.07
61026;BME280;46911;32.650;-16.902;2023-12-07T01:11:54;101836.88;;;17.50;73.00
61026;BME280;46911;32.650;-16.902;2023-12-07T01:13:55;101829.66;;;17.51;72.42
61026;BME280;46911;32.650;-16.902;2023-12-07T01:15:56;101822.16;;;17.43;72.42
61026;BME280;46911;32.650;-16.902;2023-12-07T01:17:57;101834.16;;;17.50;72.24
61026;BME280;46911;32.650;-16.902;2023-12-07T01:20:04;101828.78;;;17.50;71.97
61026;BME280;46911;32.650;-16.902;2023-12-07T01:22:08;101825.97;;;17.52;72.15
61026;BME280;46911;32.650;-16.902;2023-12-07T01:24:09;101826.19;;;17.49;72.14
61026;BME280;46911;32.650;-16.902;2023-12-07T01:26:10;101803.88;;;17.35;72.14
61026;BME280;46911;32.650;-16.902;2023-12-07T01:28:13;101817.03;;;17.40;72.33
61026;BME280;46911;32.650;-16.902;2023-12-07T01:30:16;101816.06;;;17.41;72.15
61026;BME280;46911;32.650;-16.902;2023-12-07T01:32:17;101816.06;;;17.41;72.08
61026;BME280;46911;32.650;-16.902;2023-12-07T01:34:21;101808.56;;;17.45;72.27
61026;BME280;46911;32.650;-16.902;2023-12-07T01:36:22;101803.41;;;17.42;72.08
61026;BME280;46911;32.650;-16.902;2023-12-07T01:38:23;101789.78;;;17.43;71.91
61026;BME280;46911;32.650;-16.902;2023-12-07T01:40:24;101782.94;;;17.39;71.86
61026;BME280;46911;32.650;-16.902;2023-12-07T01:42:25;101777.28;;;17.42;71.48
61026;BME280;46911;32.650;-16.902;2023-12-07T01:44:25;101788.69;;;17.46;71.80
61026;BME280;46911;32.650;-16.902;2023-12-07T01:46:30;101788.69;;;17.46;71.72
61026;BME280;46911;32.650;-16.902;2023-12-07T01:48:31;101782.47;;;17.45;71.78
61026;BME280;46911;32.650;-16.902;2023-12-07T01:50:34;101772.03;;;17.40;71.77
61026;BME280;46911;32.650;-16.902;2023-12-07T01:52:45;101776.31;;;17.43;71.17
61026;BME280;46911;32.650;-16.902;2023-12-07T01:54:50;101794.22;;;17.44;71.12
61026;BME280;46911;32.650;-16.902;2023-12-07T01:56:54;101787.09;;;17.43;71.73
61026;BME280;46911;32.650;-16.902;2023-12-07T01:58:55;101770.81;;;17.33;71.38
61026;BME280;46911;32.650;-16.902;2023-12-07T02:00:56;101785.88;;;17.36;71.72
61026;BME280;46911;32.650;-16.902;2023-12-07T02:02:57;101782.94;;;17.28;71.85
61026;BME280;46911;32.650;-16.902;2023-12-07T02:04:58;101785.03;;;17.24;71.99
61026;BME280;46911;32.650;-16.902;2023-12-07T02:07:02;101779.63;;;17.24;72.56
61026;BME280;46911;32.650;-16.902;2023-12-07T02:09:04;101782.09;;;17.16;72.49
61026;BME280;46911;32.650;-16.902;2023-12-07T02:11:07;101786.09;;;17.10;72.23
61026;BME280;46911;32.650;-16.902;2023-12-07T02:13:09;101790.63;;;17.10;72.02
61026;BME280;46911;32.650;-16.902;2023-12-07T02:15:10;101776.91;;;17.01;72.35
61026;BME280;46911;32.650;-16.902;2023-12-07T02:21:48;101795.41;;;16.95;72.09
61026;BME280;46911;32.650;-16.902;2023-12-07T02:23:51;101791.53;;;16.86;72.48
61026;BME280;46911;32.650;-16.902;2023-12-07T02:26:01;101793.25;;;16.87;72.42
61026;BME280;46911;32.650;-16.902;2023-12-07T02:28:03;101794.78;;;16.91;72.45
61026;BME280;46911;32.650;-16.902;2023-12-07T02:30:07;101788.97;;;16.84;72.81
61026;BME280;46911;32.650;-16.902;2023-12-07T02:32:12;101800.03;;;16.93;72.66
61026;BME280;46911;32.650;-16.902;2023-12-07T02:34:13;101790.94;;;16.82;72.99
61026;BME280;46911;32.650;-16.902;2023-12-07T02:36:15;101793.72;;;16.81;73.02
61026;BME280;46911;32.650;-16.902;2023-12-07T02:38:18;101786.47;;;16.70;72.99
61026;BME280;46911;32.650;-16.902;2023-12-07T02:40:22;101785.88;;;16.66;73.05
61026;BME280;46911;32.650;-16.902;2023-12-07T02:42:25;101788.31;;;16.69;72.97
61026;BME280;46911;32.650;-16.902;2023-12-07T02:44:27;101789.53;;;16.65;72.58
61026;BME280;46911;32.650;-16.902;2023-12-07T02:46:29;101794.56;;;16.70;72.40
61026;BME280;46911;32.650;-16.902;2023-12-07T02:48:30;101760.88;;;16.53;72.57
61026;BME280;46911;32.650;-16.902;2023-12-07T02:50:30;101789.81;;;16.73;72.57
61026;BME280;46911;32.650;-16.902;2023-12-07T02:52:32;101795.31;;;16.72;72.72
61026;BME280;46911;32.650;-16.902;2023-12-07T02:54:35;101792.97;;;16.67;72.74
61026;BME280;46911;32.650;-16.902;2023-12-07T02:56:39;101790.63;;;16.63;72.63
61026;BME280;46911;32.650;-16.902;2023-12-07T02:58:39;101788.28;;;16.58;72.37
61026;BME280;46911;32.650;-16.902;2023-12-07T03:00:40;101790.00;;;16.59;72.67
61026;BME280;46911;32.650;-16.902;2023-12-07T03:02:41;101790.97;;;16.58;72.62
61026;BME280;46911;32.650;-16.902;2023-12-07T03:04:42;101796.34;;;16.58;72.87
61026;BME280;46911;32.650;-16.902;2023-12-07T03:06:43;101795.88;;;16.53;73.12
61026;BME280;46911;32.650;-16.902;2023-12-07T03:08:44;101799.75;;;16.49;72.98
61026;BME280;46911;32.650;-16.902;2023-12-07T03:10:45;101802.56;;;16.47;73.01
61026;BME280;46911;32.650;-16.902;2023-12-07T03:12:46;101789.72;;;16.39;73.15
61026;BME280;46911;32.650;-16.902;2023-12-07T03:14:49;101792.88;;;16.45;73.17
61026;BME280;46911;32.650;-16.902;2023-12-07T03:16:50;101804.53;;;16.45;73.50
61026;BME280;46911;32.650;-16.902;2023-12-07T03:18:51;101798.91;;;16.48;73.70
61026;BME280;46911;32.650;-16.902;2023-12-07T03:20:52;101803.31;;;16.49;73.85
61026;BME280;46911;32.650;-16.902;2023-12-07T03:22:53;101802.56;;;16.47;73.81
61026;BME280;46911;32.650;-16.902;2023-12-07T03:24:56;101813.34;;;16.47;73.78
61026;BME280;46911;32.650;-16.902;2023-12-07T03:27:02;101814.09;;;16.49;74.14
61026;BME280;46911;32.650;-16.902;2023-12-07T03:29:04;101806.34;;;16.45;74.04
61026;BME280;46911;32.650;-16.902;2023-12-07T03:31:04;101816.91;;;16.48;74.32
61026;BME280;46911;32.650;-16.902;2023-12-07T03:33:08;101823.03;;;16.50;74.33
61026;BME280;46911;32.650;-16.902;2023-12-07T03:35:09;101817.75;;;16.48;74.25
61026;BME280;46911;32.650;-16.902;2023-12-07T03:37:10;101823.03;;;16.50;74.17
61026;BME280;46911;32.650;-16.902;2023-12-07T03:39:13;101821.28;;;16.49;73.90
61026;BME280;46911;32.650;-16.902;2023-12-07T03:41:19;101828.28;;;16.51;73.74
61026;BME280;46911;32.650;-16.902;2023-12-07T03:43:20;101817.88;;;16.47;73.93
61026;BME280;46911;32.650;-16.902;2023-12-07T03:45:25;101825.97;;;16.58;72.99
61026;BME280;46911;32.650;-16.902;2023-12-07T03:47:31;101817.31;;;16.54;73.01
61026;BME280;46911;32.650;-16.902;2023-12-07T03:49:34;101831.88;;;16.63;72.36
61026;BME280;46911;32.650;-16.902;2023-12-07T03:51:39;101819.69;;;16.70;72.30
61026;BME280;46911;32.650;-16.902;2023-12-07T03:53:40;101826.78;;;16.71;72.12
61026;BME280;46911;32.650;-16.902;2023-12-07T03:55:46;101830.22;;;16.73;72.29
61026;BME280;46911;32.650;-16.902;2023-12-07T03:57:52;101822.09;;;16.62;72.40
61026;BME280;46911;32.650;-16.902;2023-12-07T03:59:52;101824.44;;;16.67;72.09
61026;BME280;46911;32.650;-16.902;2023-12-07T04:01:54;101828.47;;;16.61;72.45
61026;BME280;46911;32.650;-16.902;2023-12-07T04:03:56;101834.31;;;16.55;72.93
61026;BME280;46911;32.650;-16.902;2023-12-07T04:06:01;101825.59;;;16.51;72.97
61026;BME280;46911;32.650;-16.902;2023-12-07T04:08:03;101838.34;;;16.49;73.44
61026;BME280;46911;32.650;-16.902;2023-12-07T04:10:06;101816.91;;;16.48;72.86
61026;BME280;46911;32.650;-16.902;2023-12-07T04:12:07;101819.09;;;16.43;73.25
61026;BME280;46911;32.650;-16.902;2023-12-07T04:14:10;101825.19;;;16.45;73.41
61026;BME280;46911;32.650;-16.902;2023-12-07T04:16:14;101827.41;;;16.39;73.77
61026;BME280;46911;32.650;-16.902;2023-12-07T04:18:17;101829.22;;;16.39;73.69
61026;BME280;46911;32.650;-16.902;2023-12-07T04:20:18;101826.06;;;16.45;73.68
61026;BME280;46911;32.650;-16.902;2023-12-07T04:22:19;101823.84;;;16.39;73.40
61026;BME280;46911;32.650;-16.902;2023-12-07T04:24:20;101826.75;;;16.36;73.32
61026;BME280;46911;32.650;-16.902;2023-12-07T04:26:21;101819.41;;;16.38;73.80
61026;BME280;46911;32.650;-16.902;2023-12-07T04:28:24;101822.22;;;16.36;74.00
61026;BME280;46911;32.650;-16.902;2023-12-07T04:30:25;101829.78;;;16.31;73.75
61026;BME280;46911;32.650;-16.902;2023-12-07T04:32:26;101823.91;;;16.26;74.27
61026;BME280;46911;32.650;-16.902;2023-12-07T04:34:27;101832.00;;;16.26;74.19
61026;BME280;46911;32.650;-16.902;2023-12-07T04:36:31;101824.22;;;16.21;74.40
61026;BME280;46911;32.650;-16.902;2023-12-07T04:38:32;101829.84;;;16.18;74.40
61026;BME280;46911;32.650;-16.902;2023-12-07T04:40:33;101826.19;;;16.19;74.10
61026;BME280;46911;32.650;-16.902;2023-12-07T04:42:38;101830.19;;;16.14;74.21
61026;BME280;46911;32.650;-16.902;2023-12-07T04:44:39;101826.97;;;16.09;74.57
61026;BME280;46911;32.650;-16.902;2023-12-07T04:46:42;101834.44;;;16.05;74.65
61026;BME280;46911;32.650;-16.902;2023-12-07T04:48:43;101835.50;;;16.02;75.01
61026;BME280;46911;32.650;-16.902;2023-12-07T04:50:51;101828.09;;;15.93;75.00
61026;BME280;46911;32.650;-16.902;2023-12-07T04:53:00;101836.81;;;15.97;75.33
61026;BME280;46911;32.650;-16.902;2023-12-07T04:55:04;101839.72;;;15.94;75.49
61026;BME280;46911;32.650;-16.902;2023-12-07T04:57:06;101845.09;;;15.94;75.79
61026;BME280;46911;32.650;-16.902;2023-12-07T04:59:09;101831.69;;;15.81;75.62
61026;BME280;46911;32.650;-16.902;2023-12-07T05:01:12;101846.53;;;15.86;75.75
61026;BME280;46911;32.650;-16.902;2023-12-07T05:03:13;101847.84;;;15.81;75.66
61026;BME280;46911;32.650;-16.902;2023-12-07T05:05:16;101850.84;;;15.89;75.74
61026;BME280;46911;32.650;-16.902;2023-12-07T05:07:17;101850.19;;;15.85;75.81
61026;BME280;46911;32.650;-16.902;2023-12-07T05:09:21;101838.13;;;15.78;75.72
61026;BME280;46911;32.650;-16.902;2023-12-07T05:11:22;101851.03;;;15.86;75.92
61026;BME280;46911;32.650;-16.902;2023-12-07T05:13:23;101852.88;;;15.85;75.63
61026;BME280;46911;32.650;-16.902;2023-12-07T05:15:24;101854.72;;;15.85;75.38
61026;BME280;46911;32.650;-16.902;2023-12-07T05:17:25;101856.34;;;15.87;75.14
61026;BME280;46911;32.650;-16.902;2023-12-07T05:19:26;101855.44;;;15.87;75.39
61026;BME280;46911;32.650;-16.902;2023-12-07T05:21:29;101862.03;;;15.83;75.39
61026;BME280;46911;32.650;-16.902;2023-12-07T05:23:32;101858.50;;;15.82;75.72
61026;BME280;46911;32.650;-16.902;2023-12-07T05:25:33;101853.38;;;15.78;75.41
61026;BME280;46911;32.650;-16.902;2023-12-07T05:27:37;101857.59;;;15.82;75.02
61026;BME280;46911;32.650;-16.902;2023-12-07T05:29:37;101866.56;;;15.82;75.53
61026;BME280;46911;32.650;-16.902;2023-12-07T05:31:39;101857.72;;;15.80;75.57
61026;BME280;46911;32.650;-16.902;2023-12-07T05:33:40;101863.19;;;15.79;75.75
61026;BME280;46911;32.650;-16.902;2023-12-07T05:35:43;101857.03;;;15.77;75.99
61026;BME280;46911;32.650;-16.902;2023-12-07T05:37:44;101861.06;;;15.84;75.87
61026;BME280;46911;32.650;-16.902;2023-12-07T05:39:50;101863.41;;;15.88;75.43
61026;BME280;46911;32.650;-16.902;2023-12-07T05:41:51;101870.63;;;15.88;75.64
61026;BME280;46911;32.650;-16.902;2023-12-07T05:43:55;101872.78;;;15.83;75.14
61026;BME280;46911;32.650;-16.902;2023-12-07T05:45:55;101868.16;;;15.85;75.27
61026;BME280;46911;32.650;-16.902;2023-12-07T05:47:59;101863.88;;;15.82;74.88
61026;BME280;46911;32.650;-16.902;2023-12-07T05:50:03;101871.94;;;15.82;75.07
61026;BME280;46911;32.650;-16.902;2023-12-07T05:52:07;101855.66;;;15.71;74.77
61026;BME280;46911;32.650;-16.902;2023-12-07T05:54:10;101867.41;;;15.83;75.06
61026;BME280;46911;32.650;-16.902;2023-12-07T05:56:11;101869.13;;;15.84;75.40
61026;BME280;46911;32.650;-16.902;2023-12-07T05:58:13;101872.56;;;15.86;75.14
61026;BME280;46911;32.650;-16.902;2023-12-07T06:00:14;101867.59;;;15.80;75.33
61026;BME280;46911;32.650;-16.902;2023-12-07T06:02:16;101870.88;;;15.85;75.51
61026;BME280;46911;32.650;-16.902;2023-12-07T06:04:17;101856.31;;;15.74;75.66
61026;BME280;46911;32.650;-16.902;2023-12-07T06:06:18;101866.22;;;15.74;75.31
61026;BME280;46911;32.650;-16.902;2023-12-07T06:08:24;101856.00;;;15.66;75.47
61026;BME280;46911;32.650;-16.902;2023-12-07T06:10:25;101864.06;;;15.66;75.31
61026;BME280;46911;32.650;-16.902;2023-12-07T06:12:26;101863.53;;;15.61;75.64
61026;BME280;46911;32.650;-16.902;2023-12-07T06:14:32;101865.69;;;15.56;75.53
61026;BME280;46911;32.650;-16.902;2023-12-07T06:16:33;101866.97;;;15.63;75.94
61026;BME280;46911;32.650;-16.902;2023-12-07T06:18:33;101874.72;;;15.68;76.04
61026;BME280;46911;32.650;-16.902;2023-12-07T06:20:34;101869.44;;;15.66;75.65
61026;BME280;46911;32.650;-16.902;2023-12-07T06:22:38;101876.34;;;15.70;75.34
61026;BME280;46911;32.650;-16.902;2023-12-07T06:24:39;101877.19;;;15.71;75.35
61026;BME280;46911;32.650;-16.902;2023-12-07T06:26:39;101881.38;;;15.75;74.84
61026;BME280;46911;32.650;-16.902;2023-12-07T06:28:40;101884.53;;;15.69;74.21
61026;BME280;46911;32.650;-16.902;2023-12-07T06:30:43;101883.53;;;15.70;73.97
61026;BME280;46911;32.650;-16.902;2023-12-07T06:32:46;101883.53;;;15.70;74.03
61026;BME280;46911;32.650;-16.902;2023-12-07T06:34:47;101883.53;;;15.70;74.10
61026;BME280;46911;32.650;-16.902;2023-12-07T06:36:48;101896.47;;;15.65;74.31
61026;BME280;46911;32.650;-16.902;2023-12-07T06:38:52;101897.53;;;15.62;74.71
61026;BME280;46911;32.650;-16.902;2023-12-07T06:40:55;101882.06;;;15.53;74.49
61026;BME280;46911;32.650;-16.902;2023-12-07T06:42:59;101898.72;;;15.58;75.06
61026;BME280;46911;32.650;-16.902;2023-12-07T06:45:00;101887.72;;;15.48;74.02
61026;BME280;46911;32.650;-16.902;2023-12-07T06:47:00;101899.69;;;15.57;73.62
61026;BME280;46911;32.650;-16.902;2023-12-07T06:49:05;101909.81;;;15.66;73.16
61026;BME280;46911;32.650;-16.902;2023-12-07T06:51:06;101893.34;;;15.58;73.06
61026;BME280;46911;32.650;-16.902;2023-12-07T06:53:07;101909.81;;;15.66;72.99
61026;BME280;46911;32.650;-16.902;2023-12-07T06:55:08;101906.34;;;15.64;73.10
61026;BME280;46911;32.650;-16.902;2023-12-07T06:57:14;101898.06;;;15.54;73.05
61026;BME280;46911;32.650;-16.902;2023-12-07T06:59:15;101906.78;;;15.58;72.91
61026;BME280;46911;32.650;-16.902;2023-12-07T07:01:18;101901.84;;;15.52;72.96
61026;BME280;46911;32.650;-16.902;2023-12-07T07:03:22;101922.06;;;15.57;72.82
61026;BME280;46911;32.650;-16.902;2023-12-07T07:05:23;101928.50;;;15.55;73.11
61026;BME280;46911;32.650;-16.902;2023-12-07T07:07:24;101930.22;;;15.56;72.70
61026;BME280;46911;32.650;-16.902;2023-12-07T07:09:25;101921.44;;;15.54;71.99
61026;BME280;46911;32.650;-16.902;2023-12-07T07:11:28;101931.06;;;15.56;72.04
61026;BME280;46911;32.650;-16.902;2023-12-07T07:13:34;101930.13;;;15.57;71.41
61026;BME280;46911;32.650;-16.902;2023-12-07T07:15:38;101913.88;;;15.46;71.05
61026;BME280;46911;32.650;-16.902;2023-12-07T07:17:41;101925.41;;;15.61;70.98
61026;BME280;46911;32.650;-16.902;2023-12-07T07:19:45;101917.84;;;15.53;71.39
61026;BME280;46911;32.650;-16.902;2023-12-07T07:21:51;101922.28;;;15.54;71.21
61026;BME280;46911;32.650;-16.902;2023-12-07T07:23:52;101938.84;;;15.61;71.24
61026;BME280;46911;32.650;-16.902;2023-12-07T07:25:53;101932.69;;;15.59;71.31
61026;BME280;46911;32.650;-16.902;2023-12-07T07:27:56;101936.38;;;15.58;70.98
61026;BME280;46911;32.650;-16.902;2023-12-07T07:29:57;101935.72;;;15.54;71.14
61026;BME280;46911;32.650;-16.902;2023-12-07T07:31:58;101940.25;;;15.54;70.85
61026;BME280;46911;32.650;-16.902;2023-12-07T07:33:59;101938.41;;;15.54;71.21
61026;BME280;46911;32.650;-16.902;2023-12-07T07:36:00;101941.00;;;15.56;70.80
61026;BME280;46911;32.650;-16.902;2023-12-07T07:38:01;101943.03;;;15.65;70.69
61026;BME280;46911;32.650;-16.902;2023-12-07T07:40:02;101928.31;;;15.58;70.70
61026;BME280;46911;32.650;-16.902;2023-12-07T07:42:07;101933.47;;;15.61;70.48
61026;BME280;46911;32.650;-16.902;2023-12-07T07:44:10;101930.78;;;15.61;71.08
61026;BME280;46911;32.650;-16.902;2023-12-07T07:46:11;101931.50;;;15.63;72.02
61026;BME280;46911;32.650;-16.902;2023-12-07T07:48:12;101934.97;;;15.65;71.91
61026;BME280;46911;32.650;-16.902;2023-12-07T07:50:13;101932.50;;;15.62;71.93
61026;BME280;46911;32.650;-16.902;2023-12-07T07:52:14;101946.28;;;15.70;71.97
61026;BME280;46911;32.650;-16.902;2023-12-07T07:54:17;101953.56;;;15.68;70.74
61026;BME280;46911;32.650;-16.902;2023-12-07T07:56:18;101933.69;;;15.58;70.65
61026;BME280;46911;32.650;-16.902;2023-12-07T07:58:22;101944.22;;;15.61;70.76
61026;BME280;46911;32.650;-16.902;2023-12-07T08:00:23;101958.75;;;15.71;70.21
61026;BME280;46911;32.650;-16.902;2023-12-07T08:02:26;101952.31;;;15.74;69.76
61026;BME280;46911;32.650;-16.902;2023-12-07T08:04:30;101949.28;;;15.79;69.17
61026;BME280;46911;32.650;-16.902;2023-12-07T08:06:31;101943.34;;;15.73;68.90
61026;BME280;46911;32.650;-16.902;2023-12-07T08:08:35;101956.69;;;15.75;69.07
61026;BME280;46911;32.650;-16.902;2023-12-07T08:10:36;101959.50;;;15.73;68.46
61026;BME280;46911;32.650;-16.902;2023-12-07T08:12:40;101961.53;;;15.70;68.20
61026;BME280;46911;32.650;-16.902;2023-12-07T08:14:42;101953.25;;;15.60;68.38
61026;BME280;46911;32.650;-16.902;2023-12-07T08:16:44;101973.16;;;15.70;68.33
61026;BME280;46911;32.650;-16.902;2023-12-07T08:18:47;101977.66;;;15.70;68.05
61026;BME280;46911;32.650;-16.902;2023-12-07T08:20:48;101959.28;;;15.64;67.51
61026;BME280;46911;32.650;-16.902;2023-12-07T08:22:51;101974.56;;;15.76;67.49
61026;BME280;46911;32.650;-16.902;2023-12-07T08:24:52;101961.22;;;15.74;68.58
61026;BME280;46911;32.650;-16.902;2023-12-07T08:26:53;101972.72;;;15.77;68.36
61026;BME280;46911;32.650;-16.902;2023-12-07T08:28:54;101971.47;;;15.82;66.73
61026;BME280;46911;32.650;-16.902;2023-12-07T08:30:55;101973.94;;;15.85;66.68
61026;BME280;46911;32.650;-16.902;2023-12-07T08:32:55;101967.50;;;15.88;66.58
61026;BME280;46911;32.650;-16.902;2023-12-07T08:34:57;101935.63;;;15.69;66.66
61026;BME280;46911;32.650;-16.902;2023-12-07T08:37:00;101969.22;;;15.89;67.04
61026;BME280;46911;32.650;-16.902;2023-12-07T08:39:01;101969.97;;;15.91;67.28
61026;BME280;46911;32.650;-16.902;2023-12-07T08:41:02;101973.53;;;15.92;66.96
61026;BME280;46911;32.650;-16.902;2023-12-07T08:43:04;101978.69;;;15.95;67.45
61026;BME280;46911;32.650;-16.902;2023-12-07T08:45:05;101980.19;;;15.99;66.77
61026;BME280;46911;32.650;-16.902;2023-12-07T08:47:06;101985.03;;;16.06;66.17
61026;BME280;46911;32.650;-16.902;2023-12-07T08:49:10;101966.50;;;16.15;66.00
61026;BME280;46911;32.650;-16.902;2023-12-07T08:51:11;101980.00;;;16.39;65.17
61026;BME280;46911;32.650;-16.902;2023-12-07T08:53:17;101982.16;;;16.47;65.19
61026;BME280;46911;32.650;-16.902;2023-12-07T08:55:23;101987.84;;;16.55;65.47
61026;BME280;46911;32.650;-16.902;2023-12-07T08:57:23;101985.44;;;16.63;64.97
61026;BME280;46911;32.650;-16.902;2023-12-07T08:59:24;101983.81;;;16.61;65.08
61026;BME280;46911;32.650;-16.902;2023-12-07T09:01:28;101992.63;;;16.76;64.60
61026;BME280;46911;32.650;-16.902;2023-12-07T09:03:31;101989.72;;;16.79;64.96
61026;BME280;46911;32.650;-16.902;2023-12-07T09:05:34;101987.34;;;16.74;64.75
61026;BME280;46911;32.650;-16.902;2023-12-07T09:07:35;102001.84;;;16.84;64.57
61026;BME280;46911;32.650;-16.902;2023-12-07T09:09:36;102002.50;;;16.88;64.26
61026;BME280;46911;32.650;-16.902;2023-12-07T09:11:37;102002.81;;;16.96;63.18
61026;BME280;46911;32.650;-16.902;2023-12-07T09:13:40;102014.97;;;17.02;63.74
61026;BME280;46911;32.650;-16.902;2023-12-07T09:15:44;102004.69;;;17.07;64.11
61026;BME280;46911;32.650;-16.902;2023-12-07T09:17:50;102006.94;;;17.13;64.05
61026;BME280;46911;32.650;-16.902;2023-12-07T09:19:51;102001.94;;;17.20;64.16
61026;BME280;46911;32.650;-16.902;2023-12-07T09:21:51;102000.63;;;17.26;64.17
61026;BME280;46911;32.650;-16.902;2023-12-07T09:23:58;102010.81;;;17.33;64.25
61026;BME280;46911;32.650;-16.902;2023-12-07T09:26:02;101997.72;;;17.40;64.39
61026;BME280;46911;32.650;-16.902;2023-12-07T09:28:06;101998.50;;;17.53;64.80
61026;BME280;46911;32.650;-16.902;2023-12-07T09:30:09;102006.50;;;17.66;64.95
61026;BME280;46911;32.650;-16.902;2023-12-07T09:32:13;101985.28;;;17.73;64.86
61026;BME280;46911;32.650;-16.902;2023-12-07T09:34:14;101994.03;;;17.88;64.88
61026;BME280;46911;32.650;-16.902;2023-12-07T09:36:18;101992.34;;;17.98;64.68
61026;BME280;46911;32.650;-16.902;2023-12-07T09:38:24;102005.97;;;18.19;64.70
61026;BME280;46911;32.650;-16.902;2023-12-07T09:40:25;102003.88;;;18.34;64.42
61026;BME280;46911;32.650;-16.902;2023-12-07T09:42:27;102013.69;;;18.58;63.92
61026;BME280;46911;32.650;-16.902;2023-12-07T09:44:28;102026.19;;;18.82;63.71
61026;BME280;46911;32.650;-16.902;2023-12-07T09:46:30;102029.34;;;19.10;63.10
61026;BME280;46911;32.650;-16.902;2023-12-07T09:48:31;102041.13;;;19.41;62.89
61026;BME280;46911;32.650;-16.902;2023-12-07T09:50:32;102038.81;;;19.79;61.75
61026;BME280;46911;32.650;-16.902;2023-12-07T09:52:34;102029.88;;;20.30;60.32
61026;BME280;46911;32.650;-16.902;2023-12-07T09:54:35;102051.09;;;21.46;59.17
61026;BME280;46911;32.650;-16.902;2023-12-07T09:56:40;102058.22;;;22.53;56.96
61026;BME280;46911;32.650;-16.902;2023-12-07T09:58:44;102070.16;;;23.52;53.80
61026;BME280;46911;32.650;-16.902;2023-12-07T10:00:48;102069.50;;;23.94;51.22
61026;BME280;46911;32.650;-16.902;2023-12-07T10:02:51;102078.91;;;24.26;50.67
61026;BME280;46911;32.650;-16.902;2023-12-07T10:05:08;102076.97;;;24.53;49.92
61026;BME280;46911;32.650;-16.902;2023-12-07T10:07:32;102072.63;;;25.28;49.06
61026;BME280;46911;32.650;-16.902;2023-12-07T10:09:41;102083.69;;;26.33;47.20
61026;BME280;46911;32.650;-16.902;2023-12-07T10:11:41;102090.28;;;27.73;45.13
61026;BME280;46911;32.650;-16.902;2023-12-07T10:13:44;102097.03;;;29.42;41.63
61026;BME280;46911;32.650;-16.902;2023-12-07T10:16:05;102100.91;;;31.16;37.10
61026;BME280;46911;32.650;-16.902;2023-12-07T10:18:10;102096.75;;;32.14;35.01
61026;BME280;46911;32.650;-16.902;2023-12-07T10:20:17;102110.50;;;32.99;34.65
61026;BME280;46911;32.650;-16.902;2023-12-07T10:22:18;102121.53;;;33.95;32.83
61026;BME280;46911;32.650;-16.902;2023-12-07T10:24:21;102122.31;;;34.65;30.24
61026;BME280;46911;32.650;-16.902;2023-12-07T10:26:22;102119.00;;;34.75;29.28
61026;BME280;46911;32.650;-16.902;2023-12-07T10:28:23;102125.41;;;34.38;30.42